Lubec, Maine
Current Conditions -  °F | °C
As of 11:10 PM on Wednesday 22 Oct 2014 (Local Time) from CYSJ Reporting Station
Light Rain Light Rain  
Wind Chill: 43°   Ceiling: 1300
Heat Index: 48°   Visibility: 15mi
Dew Point: 46°   Wind: 12mph
Humidity: 93%   Direction: 40°NE
Pressure: 30.18"   Gusts: NA
Location:  44.86°N, 66.99°W
Report Text: CYSJ 230310Z 04010KT 15SM -RA OVC013 09/08 A3018 RMK SC8 SLP222
Loading
Personal Weather Stations






























Interactive Weather Map
Tropical Storm Tracking
New forecast layout! Learn more

10-Day Weather Forecast

Advertisements
Track Severe Weather on mobile